createdAt,value
2022-09-06T00:01:49.208Z,17.2
2022-09-06T00:05:37.883Z,17.1
2022-09-06T00:10:41.893Z,17.1
2022-09-06T00:15:46.856Z,17.1
2022-09-06T00:22:08.032Z,17
2022-09-06T00:23:23.285Z,17
2022-09-06T00:24:39.522Z,17
2022-09-06T00:25:55.779Z,17
2022-09-06T00:28:28.261Z,17
2022-09-06T00:29:44.466Z,17
2022-09-06T00:32:16.985Z,16.9
2022-09-06T00:38:38.160Z,16.9
2022-09-06T00:41:09.670Z,16.8
2022-09-06T00:43:42.000Z,16.7
2022-09-06T00:47:30.835Z,16.8
2022-09-06T00:48:47.079Z,16.7
2022-09-06T00:50:03.316Z,16.7
2022-09-06T00:51:19.551Z,16.7
2022-09-06T00:52:34.815Z,16.7
2022-09-06T00:53:50.080Z,16.7
2022-09-06T00:55:06.338Z,16.7
2022-09-06T00:56:22.549Z,16.7
2022-09-06T00:57:38.820Z,16.6
2022-09-06T00:58:55.035Z,16.6
2022-09-06T01:00:11.255Z,16.6
2022-09-06T01:01:27.507Z,16.6
2022-09-06T01:02:43.744Z,16.6
2022-09-06T01:03:59.978Z,16.5
2022-09-06T01:05:16.230Z,16.5
2022-09-06T01:06:31.474Z,16.5
2022-09-06T01:07:46.748Z,16.5
2022-09-06T01:09:02.979Z,16.4
2022-09-06T01:10:19.220Z,16.4
2022-09-06T01:11:35.457Z,16.4
2022-09-06T01:12:51.704Z,16.3
2022-09-06T01:14:07.941Z,16.3
2022-09-06T01:15:24.166Z,16.3
2022-09-06T01:16:40.441Z,16.3
2022-09-06T01:17:56.654Z,16.3
2022-09-06T01:19:12.884Z,16.2
2022-09-06T01:20:28.149Z,16.2
2022-09-06T01:21:43.410Z,16.1
2022-09-06T01:22:59.640Z,16.1
2022-09-06T01:24:15.882Z,16
2022-09-06T01:25:32.129Z,16
2022-09-06T01:26:48.387Z,16
2022-09-06T01:28:04.603Z,16
2022-09-06T01:29:20.837Z,15.9
2022-09-06T01:30:37.075Z,15.9
2022-09-06T01:31:53.346Z,15.8
2022-09-06T01:33:09.568Z,15.8
2022-09-06T01:34:25.793Z,15.8
2022-09-06T01:35:42.039Z,15.8
2022-09-06T01:36:57.304Z,15.8
2022-09-06T01:38:13.535Z,15.7
2022-09-06T01:39:29.784Z,15.7
2022-09-06T01:40:46.017Z,15.7
2022-09-06T01:42:02.259Z,15.7
2022-09-06T01:43:18.488Z,15.7
2022-09-06T01:44:34.738Z,15.7
2022-09-06T01:45:50.966Z,15.6
2022-09-06T01:47:06.245Z,15.7
2022-09-06T01:48:21.485Z,15.6
2022-09-06T01:49:36.750Z,15.6
2022-09-06T01:50:52.014Z,15.6
2022-09-06T01:52:08.249Z,15.6
2022-09-06T01:53:24.485Z,15.6
2022-09-06T01:54:40.756Z,15.5
2022-09-06T01:55:56.961Z,15.6
2022-09-06T01:57:13.226Z,15.6
2022-09-06T01:58:29.448Z,15.6
2022-09-06T01:59:45.691Z,15.6
2022-09-06T02:01:01.931Z,15.6
2022-09-06T02:02:18.169Z,15.6
2022-09-06T02:03:34.398Z,15.6
2022-09-06T02:04:50.634Z,15.6
2022-09-06T02:06:06.872Z,15.5
2022-09-06T02:07:22.156Z,15.5
2022-09-06T02:08:38.373Z,15.5
2022-09-06T02:09:54.622Z,15.5
2022-09-06T02:11:10.844Z,15.5
2022-09-06T02:12:27.097Z,15.5
2022-09-06T02:13:43.333Z,15.5
2022-09-06T02:14:59.565Z,15.5
2022-09-06T02:16:14.834Z,15.5
2022-09-06T02:17:30.089Z,15.5
2022-09-06T02:18:45.349Z,15.5
2022-09-06T02:20:00.612Z,15.5
2022-09-06T02:21:16.831Z,15.5
2022-09-06T02:22:33.100Z,15.4
2022-09-06T02:23:49.327Z,15.4
2022-09-06T02:25:05.562Z,15.4
2022-09-06T02:26:21.791Z,15.4
2022-09-06T02:27:38.040Z,15.4
2022-09-06T02:28:54.276Z,15.4
2022-09-06T02:30:10.508Z,15.4
2022-09-06T02:31:26.749Z,15.4
2022-09-06T02:32:42.997Z,15.4
2022-09-06T02:33:59.229Z,15.4
2022-09-06T02:35:15.510Z,15.4
2022-09-06T02:36:30.726Z,15.4
2022-09-06T02:37:46.968Z,15.4
2022-09-06T02:39:03.211Z,15.4
2022-09-06T02:40:19.449Z,15.3
2022-09-06T02:41:35.676Z,15.3
2022-09-06T02:42:51.917Z,15.3
2022-09-06T02:44:08.161Z,15.3
2022-09-06T02:45:23.418Z,15.4
2022-09-06T02:46:38.690Z,15.4
2022-09-06T02:47:54.913Z,15.4
2022-09-06T02:49:11.159Z,15.4
2022-09-06T02:50:27.394Z,15.3
2022-09-06T02:51:43.646Z,15.3
2022-09-06T02:52:59.874Z,15.3
2022-09-06T02:54:16.117Z,15.3
2022-09-06T02:55:32.379Z,15.3
2022-09-06T02:56:48.588Z,15.3
2022-09-06T02:58:04.855Z,15.3
2022-09-06T02:59:21.074Z,15.3
2022-09-06T03:00:37.337Z,15.3
2022-09-06T03:01:53.559Z,15.2
2022-09-06T03:03:08.812Z,15.2
2022-09-06T03:04:25.041Z,15.2
2022-09-06T03:05:41.284Z,15.2
2022-09-06T03:06:57.516Z,15.2
2022-09-06T03:08:13.755Z,15.2
2022-09-06T03:09:30.006Z,15.2
2022-09-06T03:10:46.239Z,15.1
2022-09-06T03:12:01.512Z,15.2
2022-09-06T03:13:17.777Z,15.2
2022-09-06T03:14:32.995Z,15.2
2022-09-06T03:15:48.263Z,15.2
2022-09-06T03:17:04.498Z,15.3
2022-09-06T03:18:20.733Z,15.3
2022-09-06T03:19:36.980Z,15.3
2022-09-06T03:20:53.211Z,15.3
2022-09-06T03:22:09.451Z,15.3
2022-09-06T03:23:25.686Z,15.3
2022-09-06T03:24:41.940Z,15.3
2022-09-06T03:25:58.206Z,15.4
2022-09-06T03:27:14.406Z,15.3
2022-09-06T03:28:30.640Z,15.3
2022-09-06T03:29:46.896Z,15.3
2022-09-06T03:31:03.133Z,15.2
2022-09-06T03:32:18.374Z,15.2
2022-09-06T03:33:34.617Z,15.3
2022-09-06T03:34:50.852Z,15.2
2022-09-06T03:36:07.123Z,15.2
2022-09-06T03:37:23.350Z,15.2
2022-09-06T03:38:39.601Z,15.2
2022-09-06T03:39:55.824Z,15.2
2022-09-06T03:41:11.090Z,15.2
2022-09-06T03:42:26.335Z,15.1
2022-09-06T03:43:41.592Z,15.1
2022-09-06T03:44:56.853Z,15.1
2022-09-06T03:46:13.090Z,15.1
2022-09-06T03:47:29.339Z,15.1
2022-09-06T03:48:45.567Z,15.1
2022-09-06T03:50:01.806Z,15.1
2022-09-06T03:51:18.048Z,15.1
2022-09-06T03:52:34.288Z,15.1
2022-09-06T03:53:50.523Z,15.1
2022-09-06T03:55:06.763Z,15
2022-09-06T03:56:22.996Z,15
2022-09-06T03:57:39.246Z,15
2022-09-06T03:58:55.484Z,15
2022-09-06T04:00:11.724Z,15
2022-09-06T04:01:26.973Z,15
2022-09-06T04:02:43.209Z,14.9
2022-09-06T04:03:59.467Z,14.9
2022-09-06T04:05:15.686Z,14.8
2022-09-06T04:06:31.945Z,14.8
2022-09-06T04:07:48.179Z,14.8
2022-09-06T04:09:04.422Z,14.7
2022-09-06T04:10:19.682Z,14.7
2022-09-06T04:11:34.956Z,14.7
2022-09-06T04:12:51.168Z,14.7
2022-09-06T04:14:07.429Z,14.6
2022-09-06T04:15:23.651Z,14.6
2022-09-06T04:16:39.913Z,14.6
2022-09-06T04:17:56.129Z,14.6
2022-09-06T04:19:12.375Z,14.6
2022-09-06T04:20:28.614Z,14.6
2022-09-06T04:21:44.847Z,14.7
2022-09-06T04:23:01.076Z,14.6
2022-09-06T04:24:17.347Z,14.7
2022-09-06T04:25:33.557Z,14.6
2022-09-06T04:26:49.795Z,14.7
2022-09-06T04:28:05.051Z,14.6
2022-09-06T04:29:21.315Z,14.7
2022-09-06T04:30:37.533Z,14.7
2022-09-06T04:31:53.770Z,14.8
2022-09-06T04:33:10.020Z,14.8
2022-09-06T04:34:26.248Z,14.8
2022-09-06T04:35:42.488Z,14.8
2022-09-06T04:36:57.753Z,14.8
2022-09-06T04:38:13.000Z,14.8
2022-09-06T04:39:28.262Z,14.8
2022-09-06T04:40:43.533Z,14.9
2022-09-06T04:41:59.760Z,14.9
2022-09-06T04:43:16.015Z,14.9
2022-09-06T04:44:32.242Z,14.9
2022-09-06T04:45:48.492Z,14.9
2022-09-06T04:47:04.724Z,14.9
2022-09-06T04:48:20.957Z,15
2022-09-06T04:49:37.206Z,15
2022-09-06T04:50:53.449Z,15
2022-09-06T04:52:09.696Z,15
2022-09-06T04:53:25.915Z,15
2022-09-06T04:54:42.160Z,15.1
2022-09-06T04:55:58.401Z,15
2022-09-06T04:57:13.656Z,15.1
2022-09-06T04:58:29.888Z,15.1
2022-09-06T04:59:46.134Z,15.1
2022-09-06T05:01:02.376Z,15.1
2022-09-06T05:02:18.606Z,15.1
2022-09-06T05:03:34.855Z,15.1
2022-09-06T05:04:51.084Z,15.1
2022-09-06T05:06:06.362Z,15.1
2022-09-06T05:07:21.603Z,15.1
2022-09-06T05:08:37.841Z,15.1
2022-09-06T05:09:54.080Z,15.1
2022-09-06T05:11:10.316Z,15.1
2022-09-06T05:12:26.559Z,15.1
2022-09-06T05:13:42.800Z,15.1
2022-09-06T05:14:59.043Z,15.1
2022-09-06T05:16:15.271Z,15.1
2022-09-06T05:17:31.519Z,15.1
2022-09-06T05:18:47.753Z,15.1
2022-09-06T05:20:03.989Z,15.1
2022-09-06T05:21:20.232Z,15.1
2022-09-06T05:22:36.473Z,15.1
2022-09-06T05:23:51.735Z,15.2
2022-09-06T05:25:07.964Z,15.2
2022-09-06T05:26:24.218Z,15.2
2022-09-06T05:27:40.455Z,15.2
2022-09-06T05:28:56.688Z,15.3
2022-09-06T05:30:12.925Z,15.3
2022-09-06T05:31:29.159Z,15.2
2022-09-06T05:32:45.406Z,15.2
2022-09-06T05:34:01.648Z,15.2
2022-09-06T05:35:17.876Z,15.3
2022-09-06T05:36:34.119Z,15.3
2022-09-06T05:37:50.354Z,15.3
2022-09-06T05:39:06.595Z,15.3
2022-09-06T05:40:21.856Z,15.3
2022-09-06T05:41:38.105Z,15.2
2022-09-06T05:42:54.330Z,15.2
2022-09-06T05:44:10.584Z,15.2
2022-09-06T05:45:26.808Z,15.2
2022-09-06T05:46:43.054Z,15.3
2022-09-06T05:47:59.289Z,15.3
2022-09-06T05:49:15.543Z,15.3
2022-09-06T05:50:31.771Z,15.4
2022-09-06T05:51:47.044Z,15.4
2022-09-06T05:53:03.273Z,15.5
2022-09-06T05:54:19.507Z,15.5
2022-09-06T05:55:35.748Z,15.5
2022-09-06T05:56:51.996Z,15.5
2022-09-06T05:58:08.230Z,15.5
2022-09-06T05:59:24.478Z,15.5
2022-09-06T06:00:40.717Z,15.5
2022-09-06T06:01:56.942Z,15.5
2022-09-06T06:03:13.195Z,15.5
2022-09-06T06:04:29.434Z,15.5
2022-09-06T06:05:45.660Z,15.6
2022-09-06T06:07:01.912Z,15.6
2022-09-06T06:08:17.178Z,15.6
2022-09-06T06:09:33.402Z,15.6
2022-09-06T06:10:49.664Z,15.6
2022-09-06T06:12:05.871Z,15.6
2022-09-06T06:13:22.123Z,15.6
2022-09-06T06:14:38.352Z,15.6
2022-09-06T06:15:54.601Z,15.7
2022-09-06T06:17:10.836Z,15.7
2022-09-06T06:18:27.079Z,15.7
2022-09-06T06:19:43.304Z,15.7
2022-09-06T06:20:59.550Z,15.7
2022-09-06T06:22:15.803Z,15.7
2022-09-06T06:23:32.022Z,15.7
2022-09-06T06:24:47.296Z,15.7
2022-09-06T06:26:03.528Z,15.8
2022-09-06T06:27:19.768Z,15.8
2022-09-06T06:28:36.007Z,15.8
2022-09-06T06:29:52.236Z,15.7
2022-09-06T06:31:08.474Z,15.7
2022-09-06T06:32:24.730Z,15.7
2022-09-06T06:33:40.979Z,15.7
2022-09-06T06:34:57.211Z,15.8
2022-09-06T06:36:13.432Z,15.8
2022-09-06T06:37:29.673Z,15.8
2022-09-06T06:38:45.909Z,15.8
2022-09-06T06:40:02.171Z,15.8
2022-09-06T06:41:17.406Z,15.8
2022-09-06T06:42:33.648Z,15.8
2022-09-06T06:43:49.890Z,15.8
2022-09-06T06:45:06.133Z,15.9
2022-09-06T06:46:22.403Z,15.8
2022-09-06T06:48:54.867Z,15.8
2022-09-06T06:50:11.080Z,15.9
2022-09-06T06:52:43.565Z,15.9
2022-09-06T06:53:59.793Z,15.9
2022-09-06T06:55:16.029Z,16
2022-09-06T06:56:32.286Z,16
2022-09-06T06:59:03.769Z,15.9
2022-09-06T07:00:19.026Z,16
2022-09-06T07:01:34.284Z,16
2022-09-06T07:02:49.541Z,16
2022-09-06T07:04:04.805Z,16
2022-09-06T07:05:21.037Z,16
2022-09-06T07:06:37.277Z,16
2022-09-06T07:07:53.519Z,16
2022-09-06T07:09:09.783Z,16
2022-09-06T07:10:25.998Z,16
2022-09-06T07:11:42.239Z,16.1
2022-09-06T07:12:58.475Z,16.1
2022-09-06T07:14:14.714Z,16.1
2022-09-06T07:15:30.970Z,16.2
2022-09-06T07:16:46.215Z,16.2
2022-09-06T07:19:17.741Z,16.3
2022-09-06T07:20:33.930Z,16.3
2022-09-06T07:21:49.249Z,16.3
2022-09-06T07:23:04.451Z,16.3
2022-09-06T07:24:19.767Z,16.3
2022-09-06T07:25:35.951Z,16.3
2022-09-06T07:26:52.196Z,16.4
2022-09-06T07:30:39.937Z,16.4
2022-09-06T07:31:55.241Z,16.4
2022-09-06T07:33:11.442Z,16.4
2022-09-06T07:34:27.725Z,16.4
2022-09-06T07:35:43.919Z,16.5
2022-09-06T07:37:00.150Z,16.5
2022-09-06T07:38:22.336Z,16.6
2022-09-06T07:40:47.882Z,16.6
2022-09-06T07:42:04.123Z,16.7
2022-09-06T07:43:20.378Z,16.7
2022-09-06T07:44:36.609Z,16.7
2022-09-06T07:45:52.838Z,16.7
2022-09-06T07:47:09.090Z,16.7
2022-09-06T07:48:25.324Z,16.8
2022-09-06T07:49:41.574Z,16.7
2022-09-06T07:50:57.794Z,16.8
2022-09-06T07:52:14.037Z,16.8
2022-09-06T07:53:30.280Z,16.8
2022-09-06T07:54:47.003Z,16.9
2022-09-06T07:56:01.781Z,16.9
2022-09-06T08:02:23.008Z,17.1
2022-09-06T08:03:39.216Z,17.1
2022-09-06T08:06:10.755Z,17.2
2022-09-06T08:11:14.698Z,17.4
2022-09-06T08:12:29.954Z,17.5
2022-09-06T08:15:33.954Z,17.7
2022-09-06T08:16:17.675Z,17.7
2022-09-06T08:17:32.949Z,17.8
2022-09-06T08:18:48.209Z,17.9
2022-09-06T08:21:20.671Z,18
2022-09-06T08:22:36.914Z,18
2022-09-06T08:23:53.150Z,18
2022-09-06T08:25:09.395Z,18
2022-09-06T08:27:41.880Z,18.1
2022-09-06T08:31:30.594Z,18.8
2022-09-06T08:35:19.304Z,19.2
2022-09-06T08:36:34.560Z,19.5
2022-09-06T08:37:50.812Z,19.7
2022-09-06T08:39:07.045Z,20
2022-09-06T08:40:23.279Z,19.9
2022-09-06T08:41:39.526Z,20.4
2022-09-06T08:45:28.249Z,21.3
2022-09-06T08:48:00.723Z,21.6
2022-09-06T08:49:16.963Z,21.7
2022-09-06T08:53:05.670Z,21.3
2022-09-06T08:54:20.916Z,21.2
2022-09-06T08:56:53.411Z,21
2022-09-06T09:01:57.395Z,21
2022-09-06T09:04:28.882Z,20.9
2022-09-06T09:10:49.108Z,21
2022-09-06T09:14:37.827Z,21.4
2022-09-06T09:15:53.083Z,21.6
2022-09-06T09:17:08.343Z,21.8
2022-09-06T09:18:24.578Z,21.9
2022-09-06T09:27:18.245Z,23
2022-09-06T09:28:33.508Z,23.1
2022-09-06T09:29:48.775Z,23.2
2022-09-06T09:31:05.006Z,23.4
2022-09-06T09:33:37.487Z,23.5
2022-09-06T09:34:53.727Z,23.6
2022-09-06T09:45:03.634Z,25.2
2022-09-06T09:46:19.875Z,25.3
2022-09-06T09:52:40.097Z,25.8
2022-09-06T09:53:56.332Z,25.9
2022-09-06T09:59:01.287Z,25.8
2022-09-06T10:02:50.008Z,25.8
2022-09-06T10:04:06.249Z,25.9
2022-09-06T10:10:26.467Z,25.9
2022-09-06T10:11:41.720Z,25.9
2022-09-06T10:15:30.441Z,25.7
2022-09-06T10:16:46.682Z,25.5
2022-09-06T10:18:02.915Z,25.4
2022-09-06T10:19:19.150Z,25.2
2022-09-06T10:24:24.114Z,25.5
2022-09-06T10:26:56.574Z,25.3
2022-09-06T10:29:29.074Z,25.3
2022-09-06T10:32:00.561Z,25.3
2022-09-06T10:33:16.811Z,25.1
2022-09-06T10:34:33.047Z,25
2022-09-06T10:35:48.296Z,25.1
2022-09-06T10:37:03.545Z,25.3
2022-09-06T10:38:19.793Z,25.3
2022-09-06T10:39:36.030Z,25.3
2022-09-06T10:44:41.004Z,25.1
2022-09-06T10:47:13.487Z,25.2
2022-09-06T10:49:45.954Z,25.4
2022-09-06T10:51:02.193Z,25.4
2022-09-06T10:52:18.428Z,25.3
2022-09-06T10:53:34.668Z,25.4
2022-09-06T10:54:50.921Z,25.6
2022-09-06T10:56:06.176Z,25.6
2022-09-06T10:57:22.414Z,25.6
2022-09-06T11:02:27.364Z,25.1
2022-09-06T11:06:16.077Z,24.8
2022-09-06T11:08:48.563Z,24.5
2022-09-06T11:10:04.802Z,24.4
2022-09-06T11:11:21.042Z,24.3
2022-09-06T11:12:36.289Z,24.1
2022-09-06T11:13:52.539Z,24
2022-09-06T11:15:07.810Z,24
2022-09-06T11:16:23.050Z,24
2022-09-06T11:21:28.002Z,23.7
2022-09-06T11:22:44.244Z,23.6
2022-09-06T11:24:00.482Z,23.5
2022-09-06T11:25:16.723Z,23.4
2022-09-06T11:26:32.958Z,23.3
2022-09-06T11:27:49.202Z,23.3
2022-09-06T11:29:05.437Z,23.3
2022-09-06T11:30:21.692Z,23.2
2022-09-06T11:31:37.914Z,23.2
2022-09-06T11:32:53.187Z,23.2
2022-09-06T11:34:09.415Z,23
2022-09-06T11:35:25.664Z,22.9
2022-09-06T11:36:41.890Z,22.8
2022-09-06T11:37:58.144Z,22.6
2022-09-06T11:39:14.372Z,22.5
2022-09-06T11:40:30.609Z,22.4
2022-09-06T11:41:46.856Z,22.4
2022-09-06T11:43:03.093Z,22.2
2022-09-06T11:44:19.324Z,22.2
2022-09-06T11:45:34.603Z,22.1
2022-09-06T11:46:50.839Z,22.1
2022-09-06T11:48:06.078Z,22
2022-09-06T11:49:22.319Z,22
2022-09-06T11:50:38.565Z,21.9
2022-09-06T11:51:54.800Z,21.9
2022-09-06T11:53:11.054Z,21.9
2022-09-06T11:54:27.287Z,21.9
2022-09-06T11:55:43.522Z,21.9
2022-09-06T11:56:59.755Z,21.9
2022-09-06T11:58:16.013Z,22
2022-09-06T11:59:32.245Z,21.9
2022-09-06T12:00:48.471Z,21.9
2022-09-06T12:02:20.377Z,21.9
2022-09-06T12:03:20.966Z,21.8
2022-09-06T12:04:36.221Z,21.8
2022-09-06T12:05:51.471Z,21.8
2022-09-06T12:07:06.740Z,21.8
2022-09-06T12:08:21.979Z,21.8
2022-09-06T12:09:38.229Z,21.8
2022-09-06T12:10:54.477Z,21.8
2022-09-06T12:12:10.716Z,21.8
2022-09-06T12:13:26.948Z,21.9
2022-09-06T12:15:59.434Z,22
2022-09-06T12:17:15.661Z,22
2022-09-06T12:18:31.911Z,22
2022-09-06T12:19:47.161Z,22.1
2022-09-06T12:21:02.414Z,22.1
2022-09-06T12:22:17.684Z,22.2
2022-09-06T12:23:32.930Z,22.2
2022-09-06T12:24:48.205Z,22.2
2022-09-06T12:26:03.450Z,22.3
2022-09-06T12:27:18.712Z,22.3
2022-09-06T12:28:33.967Z,22.4
2022-09-06T12:29:50.203Z,22.3
2022-09-06T12:31:06.443Z,22.2
2022-09-06T12:32:22.686Z,22.2
2022-09-06T12:33:38.920Z,22.2
2022-09-06T12:34:55.155Z,22.2
2022-09-06T12:36:11.413Z,22.2
2022-09-06T12:37:27.644Z,22.3
2022-09-06T12:38:43.878Z,22.3
2022-09-06T12:40:00.122Z,22.3
2022-09-06T12:41:15.378Z,22.4
2022-09-06T12:42:30.646Z,22.4
2022-09-06T12:43:46.876Z,22.4
2022-09-06T12:45:03.123Z,22.5
2022-09-06T12:46:19.365Z,22.5
2022-09-06T12:47:35.598Z,22.6
2022-09-06T12:48:51.847Z,22.8
2022-09-06T12:50:08.086Z,22.8
2022-09-06T12:51:24.318Z,22.9
2022-09-06T12:52:40.561Z,23
2022-09-06T12:53:56.796Z,23
2022-09-06T12:55:13.039Z,23
2022-09-06T12:56:29.270Z,23.1
2022-09-06T12:57:45.000Z,23.2
2022-09-06T12:59:00.764Z,23.2
2022-09-06T13:00:17.021Z,23.3
2022-09-06T13:01:33.242Z,23.3
2022-09-06T13:02:49.483Z,23.4
2022-09-06T13:04:05.722Z,23.5
2022-09-06T13:05:21.973Z,23.5
2022-09-06T13:06:38.211Z,23.4
2022-09-06T13:07:53.477Z,23.5
2022-09-06T13:09:08.717Z,23.4
2022-09-06T13:10:24.966Z,23.4
2022-09-06T13:12:57.434Z,23.5
2022-09-06T13:14:13.674Z,23.5
2022-09-06T13:15:29.931Z,23.5
2022-09-06T13:16:46.159Z,23.5
2022-09-06T13:18:01.422Z,23.6
2022-09-06T13:19:16.669Z,23.6
2022-09-06T13:20:31.929Z,23.6
2022-09-06T13:21:47.186Z,23.6
2022-09-06T13:23:03.438Z,23.6
2022-09-06T13:24:19.667Z,23.6
2022-09-06T13:25:35.905Z,23.7
2022-09-06T13:26:52.151Z,23.7
2022-09-06T13:28:08.383Z,23.8
2022-09-06T13:29:24.634Z,23.9
2022-09-06T13:30:40.877Z,23.9
2022-09-06T13:31:57.095Z,24.1
2022-09-06T13:33:13.347Z,24.2
2022-09-06T13:34:29.590Z,24.2
2022-09-06T13:35:45.824Z,24.2
2022-09-06T13:37:02.065Z,24.2
2022-09-06T13:38:17.323Z,24.2
2022-09-06T13:39:33.548Z,24.2
2022-09-06T13:40:49.804Z,24.1
2022-09-06T13:42:06.039Z,24.1
2022-09-06T13:43:22.272Z,24.1
2022-09-06T13:44:38.518Z,24.1
2022-09-06T13:45:54.765Z,24
2022-09-06T13:47:10.012Z,24
2022-09-06T13:48:25.266Z,24
2022-09-06T13:49:40.533Z,24
2022-09-06T13:50:55.787Z,24
2022-09-06T13:52:12.037Z,24
2022-09-06T13:53:28.269Z,24
2022-09-06T13:54:44.498Z,23.9
2022-09-06T13:56:00.740Z,24
2022-09-06T13:57:16.974Z,23.9
2022-09-06T13:58:33.226Z,23.8
2022-09-06T13:59:49.471Z,23.8
2022-09-06T14:01:05.707Z,23.8
2022-09-06T14:02:21.939Z,23.8
2022-09-06T14:03:38.175Z,23.9
2022-09-06T14:04:54.420Z,23.9
2022-09-06T14:06:10.663Z,23.9
2022-09-06T14:07:25.905Z,23.8
2022-09-06T14:08:42.150Z,23.8
2022-09-06T14:09:58.391Z,23.9
2022-09-06T14:11:14.638Z,24.1
2022-09-06T14:12:30.877Z,24.2
2022-09-06T14:13:47.102Z,24.3
2022-09-06T14:15:03.349Z,24.5
2022-09-06T14:16:18.610Z,24.6
2022-09-06T14:17:33.867Z,24.6
2022-09-06T14:18:49.139Z,24.6
2022-09-06T14:20:04.388Z,24.5
2022-09-06T14:21:20.620Z,24.5
2022-09-06T14:22:36.856Z,24.4
2022-09-06T14:23:53.099Z,24.4
2022-09-06T14:25:09.345Z,24.4
2022-09-06T14:26:24.594Z,24.4
2022-09-06T14:27:40.842Z,24.5
2022-09-06T14:28:57.088Z,24.4
2022-09-06T14:30:13.317Z,24.4
2022-09-06T14:31:29.559Z,24.4
2022-09-06T14:32:45.794Z,24.4
2022-09-06T14:34:02.035Z,24.3
2022-09-06T14:35:18.273Z,24.4
2022-09-06T14:36:34.522Z,24.4
2022-09-06T14:37:50.762Z,24.5
2022-09-06T14:39:06.997Z,24.4
2022-09-06T14:40:23.226Z,24.4
2022-09-06T14:41:39.483Z,24.5
2022-09-06T14:42:54.740Z,24.5
2022-09-06T14:44:10.965Z,24.4
2022-09-06T14:45:26.242Z,24.3
2022-09-06T14:46:41.484Z,24.3
2022-09-06T14:47:57.719Z,24.3
2022-09-06T14:49:13.962Z,24.3
2022-09-06T14:50:30.205Z,24.3
2022-09-06T14:51:46.440Z,24.3
2022-09-06T14:53:02.690Z,24.3
2022-09-06T14:54:18.918Z,24.2
2022-09-06T14:55:35.161Z,24.2
2022-09-06T14:56:51.396Z,24.2
2022-09-06T14:58:07.638Z,24.1
2022-09-06T14:59:23.871Z,24.1
2022-09-06T15:00:40.114Z,24.1
2022-09-06T15:01:56.363Z,23.9
2022-09-06T15:03:11.610Z,23.8
2022-09-06T15:04:27.856Z,23.8
2022-09-06T15:05:44.088Z,23.7
2022-09-06T15:07:00.326Z,23.7
2022-09-06T15:08:16.576Z,23.6
2022-09-06T15:09:32.805Z,23.6
2022-09-06T15:10:49.042Z,23.5
2022-09-06T15:12:04.315Z,23.5
2022-09-06T15:13:19.574Z,23.4
2022-09-06T15:14:34.837Z,23.3
2022-09-06T15:15:50.075Z,23.3
2022-09-06T15:17:06.315Z,23.2
2022-09-06T15:18:22.554Z,23.1
2022-09-06T15:19:38.798Z,23
2022-09-06T15:20:55.050Z,22.9
2022-09-06T15:22:11.288Z,23
2022-09-06T15:23:27.525Z,23
2022-09-06T15:24:43.752Z,23
2022-09-06T15:26:00.007Z,23
2022-09-06T15:27:16.234Z,23
2022-09-06T15:28:32.466Z,22.9
2022-09-06T15:29:48.722Z,22.9
2022-09-06T15:31:04.957Z,22.9
2022-09-06T15:32:20.202Z,22.9
2022-09-06T15:33:36.455Z,23
2022-09-06T15:34:52.699Z,22.9
2022-09-06T15:36:08.930Z,22.9
2022-09-06T15:37:25.159Z,22.9
2022-09-06T15:38:41.408Z,22.9
2022-09-06T15:39:57.641Z,22.8
2022-09-06T15:41:12.897Z,22.8
2022-09-06T15:42:28.174Z,22.8
2022-09-06T15:43:43.413Z,22.8
2022-09-06T15:44:58.674Z,22.7
2022-09-06T15:46:13.945Z,22.6
2022-09-06T15:47:29.184Z,22.5
2022-09-06T15:48:45.424Z,22.4
2022-09-06T15:50:01.663Z,22.2
2022-09-06T15:51:17.902Z,22.1
2022-09-06T15:52:34.141Z,22
2022-09-06T15:53:50.387Z,22
2022-09-06T15:55:06.633Z,21.9
2022-09-06T15:56:22.876Z,22
2022-09-06T15:57:39.101Z,22
2022-09-06T15:58:55.351Z,22
2022-09-06T16:00:11.579Z,21.9
2022-09-06T16:01:27.826Z,21.9
2022-09-06T16:02:43.089Z,21.9
2022-09-06T16:03:58.340Z,21.8
2022-09-06T16:05:14.580Z,21.8
2022-09-06T16:06:29.844Z,21.7
2022-09-06T16:07:45.105Z,21.7
2022-09-06T16:09:01.328Z,21.7
2022-09-06T16:10:17.576Z,21.7
2022-09-06T16:11:33.818Z,21.7
2022-09-06T16:12:50.050Z,21.6
2022-09-06T16:14:06.297Z,21.7
2022-09-06T16:15:22.528Z,21.7
2022-09-06T16:16:38.771Z,21.7
2022-09-06T16:17:55.007Z,21.8
2022-09-06T16:19:11.240Z,21.7
2022-09-06T16:20:27.485Z,21.7
2022-09-06T16:21:43.735Z,21.7
2022-09-06T16:22:59.976Z,21.8
2022-09-06T16:24:15.221Z,21.8
2022-09-06T16:25:31.453Z,21.7
2022-09-06T16:26:47.693Z,21.7
2022-09-06T16:28:03.942Z,21.7
2022-09-06T16:29:20.169Z,21.7
2022-09-06T16:30:36.420Z,21.6
2022-09-06T16:31:52.647Z,21.6
2022-09-06T16:33:07.910Z,21.6
2022-09-06T16:34:23.178Z,21.6
2022-09-06T16:35:38.436Z,21.5
2022-09-06T16:36:53.696Z,21.5
2022-09-06T16:38:09.929Z,21.5
2022-09-06T16:39:26.165Z,21.5
2022-09-06T16:40:42.417Z,21.6
2022-09-06T16:41:58.638Z,21.5
2022-09-06T16:43:14.875Z,21.6
2022-09-06T16:44:31.131Z,21.5
2022-09-06T16:45:47.366Z,21.5
2022-09-06T16:47:03.595Z,21.5
2022-09-06T16:48:19.838Z,21.5
2022-09-06T16:49:36.080Z,21.4
2022-09-06T16:50:52.316Z,21.4
2022-09-06T16:52:08.555Z,21.4
2022-09-06T16:53:23.816Z,21.4
2022-09-06T16:54:40.062Z,21.4
2022-09-06T16:55:56.294Z,21.4
2022-09-06T16:57:12.541Z,21.3
2022-09-06T16:58:28.779Z,21.3
2022-09-06T16:59:45.016Z,21.3
2022-09-06T17:01:01.240Z,21.3
2022-09-06T17:02:16.511Z,21.3
2022-09-06T17:03:31.758Z,21.2
2022-09-06T17:04:47.018Z,21.2
2022-09-06T17:06:02.284Z,21.1
2022-09-06T17:07:18.519Z,21.1
2022-09-06T17:08:34.755Z,21.1
2022-09-06T17:09:50.989Z,21.1
2022-09-06T17:11:07.233Z,21
2022-09-06T17:12:23.476Z,21
2022-09-06T17:13:39.708Z,21
2022-09-06T17:14:55.960Z,20.9
2022-09-06T17:16:12.194Z,20.9
2022-09-06T17:17:28.426Z,20.9
2022-09-06T17:18:44.668Z,20.8
2022-09-06T17:20:00.904Z,20.8
2022-09-06T17:21:17.157Z,20.8
2022-09-06T17:22:32.417Z,20.7
2022-09-06T17:23:48.637Z,20.7
2022-09-06T17:25:04.889Z,20.6
2022-09-06T17:26:21.132Z,20.6
2022-09-06T17:27:37.366Z,20.5
2022-09-06T17:28:53.598Z,20.5
2022-09-06T17:30:09.838Z,20.4
2022-09-06T17:31:25.103Z,20.4
2022-09-06T17:32:40.366Z,20.3
2022-09-06T17:33:55.618Z,20.2
2022-09-06T17:35:10.875Z,20.2
2022-09-06T17:36:26.129Z,20.2
2022-09-06T17:37:41.383Z,20.1
2022-09-06T17:38:56.643Z,20.1
2022-09-06T17:40:11.906Z,20.1
2022-09-06T17:41:28.137Z,20.1
2022-09-06T17:42:44.381Z,20
2022-09-06T17:44:00.619Z,20
2022-09-06T17:45:16.859Z,19.9
2022-09-06T17:46:33.100Z,19.9
2022-09-06T17:47:49.342Z,19.9
2022-09-06T17:49:05.587Z,19.8
2022-09-06T17:50:21.826Z,19.8
2022-09-06T17:51:38.066Z,19.7
2022-09-06T17:52:54.301Z,19.7
2022-09-06T17:54:10.539Z,19.7
2022-09-06T17:55:26.770Z,19.6
2022-09-06T17:56:42.028Z,19.6
2022-09-06T17:57:58.275Z,19.5
2022-09-06T17:59:14.522Z,19.5
2022-09-06T18:00:30.758Z,19.4
2022-09-06T18:01:46.996Z,19.4
2022-09-06T18:03:03.225Z,19.4
2022-09-06T18:04:19.464Z,19.3
2022-09-06T18:05:34.736Z,19.3
2022-09-06T18:08:06.215Z,19.2
2022-09-06T18:09:22.000Z,19.1
2022-09-06T18:10:38.700Z,19.1
2022-09-06T18:11:54.942Z,19.1
2022-09-06T18:13:11.183Z,19.1
2022-09-06T18:14:27.417Z,19.1
2022-09-06T18:15:43.661Z,19.1
2022-09-06T18:16:59.902Z,19.1
2022-09-06T18:18:16.138Z,19.1
2022-09-06T18:19:32.373Z,19
2022-09-06T18:20:48.613Z,19
2022-09-06T18:22:04.853Z,19
2022-09-06T18:23:20.119Z,19
2022-09-06T18:24:36.346Z,19
2022-09-06T18:25:52.591Z,18.9
2022-09-06T18:27:08.821Z,18.9
2022-09-06T18:28:25.061Z,18.9
2022-09-06T18:29:41.308Z,18.8
2022-09-06T18:30:57.554Z,18.8
2022-09-06T18:32:13.737Z,18.8
2022-09-06T18:33:29.038Z,18.8
2022-09-06T18:34:44.302Z,18.8
2022-09-06T18:36:00.540Z,18.8
2022-09-06T18:37:16.778Z,18.8
2022-09-06T18:38:33.029Z,18.8
2022-09-06T18:39:49.257Z,18.8
2022-09-06T18:41:04.509Z,18.8
2022-09-06T18:42:20.757Z,18.8
2022-09-06T18:43:36.997Z,18.8
2022-09-06T18:44:53.239Z,18.8
2022-09-06T18:46:09.471Z,18.8
2022-09-06T18:47:25.721Z,18.8
2022-09-06T18:55:03.123Z,18.7
2022-09-06T18:56:19.367Z,18.7
2022-09-06T19:01:24.328Z,18.6
2022-09-06T19:11:34.238Z,18.4
2022-09-06T19:16:39.199Z,18.3
2022-09-06T19:20:27.915Z,18.3
2022-09-06T19:26:49.109Z,18.2
2022-09-06T19:29:21.704Z,18.1
2022-09-06T19:30:38.020Z,18
2022-09-06T19:31:54.311Z,18
2022-09-06T19:40:46.994Z,18
2022-09-06T19:43:19.480Z,17.9
2022-09-06T19:53:29.391Z,17.9
2022-09-06T19:54:45.679Z,17.9
2022-09-06T19:59:50.648Z,17.7
2022-09-06T20:02:22.129Z,17.7
2022-09-06T20:08:43.329Z,17.6
2022-09-06T20:09:59.583Z,17.6
2022-09-06T20:11:15.814Z,17.6
2022-09-06T20:16:20.663Z,17.6
2022-09-06T20:18:53.127Z,17.5
2022-09-06T20:31:35.524Z,17.5
2022-09-06T20:44:17.926Z,17.3
2022-09-06T20:46:50.396Z,17.3
2022-09-06T20:50:39.305Z,17.2
2022-09-06T20:51:55.597Z,17.2
2022-09-06T20:53:12.025Z,17.2
2022-09-06T20:54:27.219Z,17.2